createdAt,value
2017-10-22T13:11:17.559Z,25.67
2017-10-22T13:13:43.620Z,27.03
2017-10-22T13:16:09.691Z,25.03
2017-10-22T13:18:35.922Z,22.77
2017-10-22T13:21:02.048Z,24.50
2017-10-22T13:28:49.834Z,22.70
2017-10-22T13:31:17.219Z,19.57
2017-10-22T13:33:43.618Z,15.50
2017-10-22T13:36:11.322Z,11.87
2017-10-22T13:38:38.472Z,49.90
2017-10-22T13:41:08.670Z,78.47
2017-10-22T13:43:35.361Z,75.57
2017-10-22T13:46:02.417Z,75.53
2017-10-22T13:48:28.712Z,71.03
2017-10-22T13:50:56.116Z,71.53
2017-10-22T13:53:22.553Z,69.80
2017-10-22T13:55:49.412Z,69.70
2017-10-22T13:58:16.105Z,67.00
2017-10-22T14:00:42.272Z,65.60
2017-10-22T14:03:09.568Z,64.67
2017-10-22T14:05:35.847Z,69.23
2017-10-22T14:08:02.962Z,67.50
2017-10-22T14:10:29.780Z,69.03
2017-10-22T14:12:57.055Z,71.87
2017-10-22T14:15:24.116Z,74.50
2017-10-22T14:17:50.368Z,70.77
2017-10-22T14:20:16.790Z,67.50
2017-10-22T14:22:42.928Z,68.20
2017-10-22T14:25:09.923Z,70.53
2017-10-22T14:27:36.186Z,70.87
2017-10-22T14:30:02.393Z,73.20
2017-10-22T14:32:29.157Z,68.27
2017-10-22T14:34:56.065Z,69.57
2017-10-22T14:37:23.142Z,69.47
2017-10-22T14:39:49.963Z,72.70
2017-10-22T14:42:16.217Z,70.90
2017-10-22T14:44:43.349Z,68.83
2017-10-22T14:47:09.844Z,69.90
2017-10-22T14:49:36.708Z,67.40
2017-10-22T14:52:03.412Z,68.57
2017-10-22T14:54:30.070Z,65.90
2017-10-22T14:56:57.337Z,66.70
2017-10-22T14:59:24.174Z,62.27
2017-10-22T15:01:50.777Z,64.40
2017-10-22T15:04:17.292Z,63.30
2017-10-22T15:06:44.464Z,65.40
2017-10-22T15:09:11.622Z,65.27
2017-10-22T15:11:38.632Z,63.57
2017-10-22T15:14:06.152Z,65.10
2017-10-22T15:16:32.370Z,60.23
2017-10-22T15:18:58.637Z,63.40
2017-10-22T15:21:25.098Z,68.47
2017-10-22T15:23:52.223Z,66.43
2017-10-22T15:26:19.479Z,66.80
2017-10-22T15:35:23.129Z,66.17
2017-10-22T15:37:50.179Z,74.60
2017-10-22T15:40:17.274Z,32.93
2017-10-22T15:42:44.080Z,18.27
2017-10-22T15:45:11.262Z,14.80
2017-10-22T15:47:37.839Z,53.20
2017-10-22T15:50:05.723Z,56.63
2017-10-22T15:52:32.888Z,56.60
2017-10-22T15:56:49.591Z,27.60
2017-10-22T15:59:16.349Z,23.83
2017-10-22T16:01:43.220Z,21.67
2017-10-22T16:04:09.337Z,21.40
2017-10-22T16:06:35.396Z,20.97
2017-10-22T16:11:29.405Z,64.50
2017-10-22T16:13:55.641Z,67.27
2017-10-22T16:16:21.869Z,67.63
2017-10-22T16:18:48.091Z,69.37
2017-10-22T16:21:14.325Z,70.30
2017-10-22T16:23:40.561Z,67.20
2017-10-22T16:26:08.021Z,69.27
2017-10-22T16:28:35.482Z,71.53
2017-10-22T16:31:01.703Z,74.43
2017-10-22T16:33:27.941Z,72.83
2017-10-22T16:35:54.164Z,70.10
2017-10-22T16:38:20.402Z,70.93
2017-10-22T16:40:46.624Z,75.07
2017-10-22T16:43:14.113Z,78.50
2017-10-22T16:45:40.315Z,79.00
2017-10-22T16:48:06.552Z,80.07
2017-10-22T16:50:32.779Z,89.37
2017-10-22T16:52:59.015Z,29.10
2017-10-22T16:55:26.696Z,27.23
2017-10-22T16:57:53.012Z,26.50
2017-10-22T17:00:20.868Z,23.80
2017-10-22T17:02:47.655Z,25.40
2017-10-22T17:05:14.470Z,25.57
2017-10-22T17:07:40.694Z,25.33
2017-10-22T17:10:06.929Z,25.27
2017-10-22T17:12:33.153Z,24.40
